Open Full Screen Window  High Contrast Mode
Wind Gusting 00 knots
04
August 30, 2014 8:15 PM EDT
Present Weather: Light Drizzle
Weather Information
Wind Direction
  190 °
Wind Speed
  04 kt (5 mph)
Wind Gust
  00 kt (0 mph)
Altimeter
30.05 in
Visibility
10 SM
Temperature
22° C
72° F
Dewpoint
21° C
70° F
Humidity
94%
1hr Rain Fall
00.00 in.
24hr Rain Fall
00.05 in.
Sky Condition
Scattered @ 12,000 ft
VFR

METAR KI69 310015Z AUTO 19004KT 10SM -DZ SCT120 22/21 A3005 RMK AO1

*Background is not an actual portrayal of the airport.